createdAt,value
2018-03-02T00:01:15.477Z,61.34
2018-03-02T00:03:43.011Z,61.35
2018-03-02T00:06:10.528Z,61.64
2018-03-02T00:08:38.045Z,61.76
2018-03-02T00:11:05.583Z,61.70
2018-03-02T00:13:33.109Z,61.67
2018-03-02T00:16:00.629Z,61.73
2018-03-02T00:18:28.230Z,61.50
2018-03-02T00:20:55.754Z,61.67
2018-03-02T00:23:23.293Z,61.91
2018-03-02T00:25:50.829Z,62.19
2018-03-02T00:28:18.366Z,62.17
2018-03-02T00:30:45.889Z,61.96
2018-03-02T00:33:13.424Z,61.95
2018-03-02T00:35:40.952Z,61.78
2018-03-02T00:38:08.469Z,62.01
2018-03-02T00:40:35.998Z,62.01
2018-03-02T00:43:03.517Z,61.62
2018-03-02T00:45:31.070Z,62.20
2018-03-02T00:47:58.585Z,62.00
2018-03-02T00:50:26.114Z,62.27
2018-03-02T00:52:53.634Z,62.37
2018-03-02T00:55:21.157Z,62.73
2018-03-02T00:57:48.678Z,62.79
2018-03-02T01:00:16.212Z,62.49
2018-03-02T01:02:44.104Z,62.40
2018-03-02T01:05:11.629Z,62.89
2018-03-02T01:07:39.152Z,62.75
2018-03-02T01:10:06.672Z,62.83
2018-03-02T01:12:34.194Z,62.71
2018-03-02T01:15:01.713Z,63.19
2018-03-02T01:17:29.236Z,62.87
2018-03-02T01:19:56.754Z,62.76
2018-03-02T01:22:24.277Z,63.29
2018-03-02T01:24:51.812Z,63.53
2018-03-02T01:27:19.325Z,63.18
2018-03-02T01:29:46.840Z,63.54
2018-03-02T01:32:14.356Z,63.22
2018-03-02T01:34:41.883Z,63.07
2018-03-02T01:37:09.402Z,63.48
2018-03-02T01:39:36.925Z,63.77
2018-03-02T01:42:04.445Z,63.65
2018-03-02T01:44:31.965Z,63.64
2018-03-02T01:46:59.484Z,63.75
2018-03-02T01:49:26.999Z,63.44
2018-03-02T01:51:54.534Z,63.94
2018-03-02T01:54:22.060Z,63.77
2018-03-02T01:56:49.588Z,63.56
2018-03-02T01:59:17.110Z,64.20
2018-03-02T02:01:44.633Z,63.83
2018-03-02T02:04:12.175Z,64.23
2018-03-02T02:06:39.698Z,64.07
2018-03-02T02:09:07.221Z,64.39
2018-03-02T02:11:34.742Z,64.39
2018-03-02T02:14:02.278Z,64.57
2018-03-02T02:16:29.797Z,64.75
2018-03-02T02:18:57.327Z,64.82
2018-03-02T02:21:24.858Z,64.86
2018-03-02T02:23:52.373Z,64.08
2018-03-02T02:26:19.893Z,64.14
2018-03-02T02:28:47.420Z,64.44
2018-03-02T02:31:14.956Z,64.75
2018-03-02T02:33:42.476Z,64.91
2018-03-02T02:36:10.011Z,64.84
2018-03-02T02:38:37.529Z,64.85
2018-03-02T02:41:05.047Z,64.62
2018-03-02T02:43:32.568Z,65.04
2018-03-02T02:46:00.095Z,65.10
2018-03-02T02:48:27.621Z,64.61
2018-03-02T02:50:55.148Z,65.20
2018-03-02T02:53:22.665Z,64.73
2018-03-02T02:55:50.183Z,64.63
2018-03-02T02:58:17.706Z,64.75
2018-03-02T03:00:45.225Z,64.80
2018-03-02T03:03:12.777Z,65.37
2018-03-02T03:05:40.316Z,65.36
2018-03-02T03:08:07.868Z,65.24
2018-03-02T03:10:35.401Z,65.47
2018-03-02T03:13:02.935Z,65.70
2018-03-02T03:15:30.467Z,65.88
2018-03-02T03:17:58.006Z,65.38
2018-03-02T03:20:25.527Z,65.47
2018-03-02T03:22:53.052Z,65.32
2018-03-02T03:25:20.587Z,65.70
2018-03-02T03:27:48.115Z,65.66
2018-03-02T03:30:15.641Z,65.51
2018-03-02T03:32:43.160Z,65.72
2018-03-02T03:35:10.681Z,65.78
2018-03-02T03:37:38.211Z,65.38
2018-03-02T03:40:05.753Z,65.98
2018-03-02T03:42:33.279Z,66.19
2018-03-02T03:45:00.800Z,65.70
2018-03-02T03:47:28.324Z,66.00
2018-03-02T03:49:55.851Z,65.84
2018-03-02T03:52:23.385Z,65.73
2018-03-02T03:54:50.910Z,65.90
2018-03-02T03:57:18.448Z,65.33
2018-03-02T03:59:45.975Z,66.13
2018-03-02T04:02:13.501Z,66.23
2018-03-02T04:04:41.029Z,66.31
2018-03-02T04:07:08.563Z,66.19
2018-03-02T04:09:36.100Z,66.10
2018-03-02T04:12:03.659Z,66.16
2018-03-02T04:14:31.188Z,65.95
2018-03-02T04:16:58.704Z,65.81
2018-03-02T04:19:26.225Z,65.63
2018-03-02T04:21:53.751Z,66.42
2018-03-02T04:24:21.275Z,66.44
2018-03-02T04:26:48.797Z,66.31
2018-03-02T04:29:16.332Z,66.02
2018-03-02T04:31:43.860Z,66.03
2018-03-02T04:34:11.380Z,65.74
2018-03-02T04:36:38.904Z,66.08
2018-03-02T04:39:06.436Z,66.39
2018-03-02T04:41:33.963Z,66.41
2018-03-02T04:44:01.490Z,66.54
2018-03-02T04:46:29.013Z,66.63
2018-03-02T04:48:56.537Z,66.56
2018-03-02T04:51:24.071Z,66.69
2018-03-02T04:53:51.627Z,66.86
2018-03-02T04:56:19.145Z,66.55
2018-03-02T04:58:46.685Z,66.43
2018-03-02T05:01:14.211Z,66.62
2018-03-02T05:03:41.787Z,66.82
2018-03-02T05:06:09.289Z,67.01
2018-03-02T05:08:36.813Z,66.66
2018-03-02T05:11:04.345Z,66.92
2018-03-02T05:13:31.866Z,66.66
2018-03-02T05:15:59.392Z,66.87
2018-03-02T05:18:26.921Z,66.90
2018-03-02T05:20:54.459Z,66.61
2018-03-02T05:23:21.987Z,66.61
2018-03-02T05:25:49.520Z,66.57
2018-03-02T05:28:17.056Z,66.61
2018-03-02T05:30:44.597Z,66.81
2018-03-02T05:33:12.117Z,66.73
2018-03-02T05:35:39.638Z,66.86
2018-03-02T05:38:07.170Z,66.79
2018-03-02T05:40:34.692Z,66.65
2018-03-02T05:43:02.219Z,66.62
2018-03-02T05:45:29.738Z,66.82
2018-03-02T05:47:57.257Z,66.70
2018-03-02T05:50:24.793Z,66.76
2018-03-02T05:52:52.320Z,66.96
2018-03-02T05:55:19.840Z,67.22
2018-03-02T05:57:47.401Z,66.64
2018-03-02T06:00:14.925Z,67.18
2018-03-02T06:02:42.459Z,67.09
2018-03-02T06:05:09.980Z,67.35
2018-03-02T06:07:37.504Z,67.22
2018-03-02T06:10:05.034Z,66.87
2018-03-02T06:12:32.571Z,67.03
2018-03-02T06:15:00.094Z,67.19
2018-03-02T06:17:27.627Z,66.29
2018-03-02T06:19:55.171Z,66.92
2018-03-02T06:22:22.698Z,66.72
2018-03-02T06:24:50.217Z,66.64
2018-03-02T06:27:17.737Z,65.81
2018-03-02T06:29:45.273Z,65.28
2018-03-02T06:32:12.803Z,64.42
2018-03-02T06:34:40.329Z,65.17
2018-03-02T06:37:07.858Z,65.46
2018-03-02T06:39:35.397Z,64.93
2018-03-02T06:42:02.946Z,65.22
2018-03-02T06:44:30.470Z,65.36
2018-03-02T06:46:57.997Z,65.19
2018-03-02T06:49:25.523Z,65.30
2018-03-02T06:51:53.070Z,64.14
2018-03-02T06:54:20.603Z,64.21
2018-03-02T06:56:48.132Z,65.60
2018-03-02T06:59:15.654Z,66.30
2018-03-02T07:01:43.208Z,64.28
2018-03-02T07:04:10.743Z,63.20
2018-03-02T07:06:38.264Z,63.85
2018-03-02T07:09:05.789Z,63.45
2018-03-02T07:11:33.304Z,63.59
2018-03-02T07:14:00.830Z,63.27
2018-03-02T07:16:28.357Z,63.67
2018-03-02T07:18:56.688Z,63.17
2018-03-02T07:21:24.210Z,63.40
2018-03-02T07:23:51.737Z,62.45
2018-03-02T07:26:19.274Z,61.96
2018-03-02T07:28:46.792Z,61.54
2018-03-02T07:31:14.336Z,61.46
2018-03-02T07:33:41.852Z,60.99
2018-03-02T07:36:09.370Z,60.73
2018-03-02T07:38:36.907Z,60.83
2018-03-02T07:41:04.434Z,59.66
2018-03-02T07:43:31.966Z,59.33
2018-03-02T07:46:00.070Z,57.64
2018-03-02T07:48:27.591Z,57.15
2018-03-02T07:50:55.127Z,53.78
2018-03-02T07:53:22.651Z,53.88
2018-03-02T07:55:50.172Z,52.54
2018-03-02T07:58:17.696Z,51.18
2018-03-02T08:00:45.216Z,50.08
2018-03-02T08:03:12.740Z,49.74
2018-03-02T08:05:40.262Z,50.24
2018-03-02T08:08:07.783Z,51.02
2018-03-02T08:10:35.366Z,46.98
2018-03-02T08:13:02.889Z,45.89
2018-03-02T08:15:30.404Z,47.87
2018-03-02T08:17:57.916Z,44.01
2018-03-02T08:20:25.461Z,48.56
2018-03-02T08:22:53.000Z,45.92
2018-03-02T08:25:20.571Z,45.29
2018-03-02T08:27:48.061Z,44.41
2018-03-02T08:30:15.576Z,43.66
2018-03-02T08:32:43.125Z,40.24
2018-03-02T08:35:10.663Z,39.28
2018-03-02T08:37:38.179Z,39.70
2018-03-02T08:40:05.709Z,37.44
2018-03-02T08:42:33.229Z,36.74
2018-03-02T08:45:00.763Z,37.28
2018-03-02T08:47:28.279Z,40.04
2018-03-02T08:49:55.817Z,39.51
2018-03-02T08:52:23.345Z,36.08
2018-03-02T08:54:50.866Z,39.48
2018-03-02T08:57:18.380Z,40.64
2018-03-02T08:59:45.901Z,38.62
2018-03-02T09:02:13.415Z,35.24
2018-03-02T09:04:40.957Z,34.30
2018-03-02T09:07:08.480Z,36.84
2018-03-02T09:09:36.018Z,39.82
2018-03-02T09:12:03.552Z,36.31
2018-03-02T09:14:31.086Z,36.58
2018-03-02T09:16:58.626Z,37.41
2018-03-02T09:19:26.143Z,38.38
2018-03-02T09:21:53.661Z,37.03
2018-03-02T09:24:21.177Z,36.32
2018-03-02T09:26:48.690Z,35.10
2018-03-02T09:29:16.200Z,32.89
2018-03-02T09:31:43.734Z,37.53
2018-03-02T09:34:11.259Z,35.50
2018-03-02T09:36:38.775Z,29.15
2018-03-02T09:39:06.713Z,36.00
2018-03-02T09:41:34.856Z,37.03
2018-03-02T09:44:02.394Z,27.92
2018-03-02T09:46:30.606Z,31.34
2018-03-02T09:48:58.185Z,31.36
2018-03-02T09:51:25.713Z,32.08
2018-03-02T09:53:53.243Z,31.72
2018-03-02T09:56:20.791Z,34.23
2018-03-02T09:58:48.318Z,29.44
2018-03-02T10:01:16.181Z,27.43
2018-03-02T10:03:44.639Z,30.44
2018-03-02T10:06:12.153Z,26.86
2018-03-02T10:08:39.669Z,30.46
2018-03-02T10:11:07.187Z,32.41
2018-03-02T10:13:34.711Z,30.97
2018-03-02T10:16:02.240Z,32.14
2018-03-02T10:18:29.761Z,38.49
2018-03-02T10:20:57.283Z,39.53
2018-03-02T10:23:24.832Z,36.36
2018-03-02T10:25:52.352Z,38.87
2018-03-02T10:28:19.894Z,43.43
2018-03-02T10:30:47.418Z,43.81
2018-03-02T10:33:14.961Z,39.88
2018-03-02T10:35:42.489Z,42.02
2018-03-02T10:38:10.024Z,43.95
2018-03-02T10:40:37.554Z,41.00
2018-03-02T10:43:05.079Z,41.46
2018-03-02T10:45:32.596Z,41.82
2018-03-02T10:48:00.119Z,41.25
2018-03-02T10:50:28.270Z,43.18
2018-03-02T10:52:55.794Z,44.73
2018-03-02T10:55:23.328Z,45.18
2018-03-02T10:57:50.853Z,45.02
2018-03-02T11:00:23.981Z,45.77
2018-03-02T11:02:58.397Z,45.46
2018-03-02T11:05:31.636Z,44.87
2018-03-02T11:07:59.230Z,45.65
2018-03-02T11:10:27.687Z,44.50
2018-03-02T11:12:55.247Z,43.55
2018-03-02T11:15:22.786Z,44.39
2018-03-02T11:17:50.332Z,42.58
2018-03-02T11:20:17.875Z,44.87
2018-03-02T11:22:45.400Z,46.36
2018-03-02T11:25:12.948Z,43.95
2018-03-02T11:27:40.474Z,43.14
2018-03-02T11:30:08.008Z,42.87
2018-03-02T11:32:35.526Z,43.72
2018-03-02T11:35:03.053Z,43.06
2018-03-02T11:37:30.576Z,44.55
2018-03-02T11:39:58.114Z,44.67
2018-03-02T11:42:25.664Z,45.10
2018-03-02T11:44:53.190Z,44.81
2018-03-02T11:47:20.712Z,42.63
2018-03-02T11:49:48.233Z,43.08
2018-03-02T11:52:15.754Z,42.75
2018-03-02T11:54:43.270Z,42.75
2018-03-02T11:57:10.801Z,44.48
2018-03-02T11:59:38.330Z,42.76
2018-03-02T12:02:05.845Z,42.26
2018-03-02T12:04:33.376Z,43.14
2018-03-02T12:07:00.889Z,42.74
2018-03-02T12:09:28.410Z,42.40
2018-03-02T12:11:55.933Z,42.88
2018-03-02T12:14:23.459Z,43.90
2018-03-02T12:16:51.026Z,43.62
2018-03-02T12:19:19.349Z,43.54
2018-03-02T12:21:47.759Z,42.58
2018-03-02T12:24:15.291Z,44.19
2018-03-02T12:26:42.825Z,43.74
2018-03-02T12:29:10.347Z,43.47
2018-03-02T12:31:37.864Z,43.52
2018-03-02T12:34:05.383Z,43.35
2018-03-02T12:36:32.979Z,43.85
2018-03-02T12:39:00.479Z,43.81
2018-03-02T12:41:28.951Z,43.09
2018-03-02T12:43:56.471Z,43.65
2018-03-02T12:46:24.005Z,43.38
2018-03-02T12:48:51.528Z,44.08
2018-03-02T12:51:19.156Z,44.23
2018-03-02T12:53:46.693Z,43.29
2018-03-02T12:56:14.221Z,43.08
2018-03-02T12:58:41.745Z,43.10
2018-03-02T13:01:09.262Z,43.02
2018-03-02T13:03:37.466Z,42.83
2018-03-02T13:06:04.988Z,43.33
2018-03-02T13:08:32.549Z,43.25
2018-03-02T13:11:00.064Z,44.17
2018-03-02T13:13:27.933Z,43.17
2018-03-02T13:15:55.468Z,43.19
2018-03-02T13:18:47.816Z,43.07
2018-03-02T13:21:15.335Z,43.35
2018-03-02T13:23:44.388Z,42.83
2018-03-02T13:26:23.761Z,43.02
2018-03-02T13:28:52.232Z,43.17
2018-03-02T13:31:20.208Z,42.82
2018-03-02T13:33:59.573Z,42.74
2018-03-02T13:36:27.128Z,43.17
2018-03-02T13:38:54.722Z,43.40
2018-03-02T13:41:34.021Z,43.61
2018-03-02T13:44:01.653Z,42.81
2018-03-02T13:46:30.160Z,43.01
2018-03-02T13:49:10.232Z,42.94
2018-03-02T13:51:37.768Z,43.06
2018-03-02T13:54:06.021Z,43.00
2018-03-02T13:56:45.349Z,42.63
2018-03-02T13:59:12.900Z,43.42
2018-03-02T14:01:40.430Z,43.66
2018-03-02T14:04:19.747Z,43.87
2018-03-02T14:06:47.276Z,43.66
2018-03-02T14:09:14.798Z,43.43
2018-03-02T14:11:42.332Z,43.45
2018-03-02T14:14:09.861Z,43.30
2018-03-02T14:16:37.379Z,43.42
2018-03-02T14:19:04.914Z,43.21
2018-03-02T14:21:32.662Z,43.71
2018-03-02T14:24:00.527Z,43.37
2018-03-02T14:26:28.909Z,43.15
2018-03-02T14:28:56.439Z,43.26
2018-03-02T14:31:23.964Z,42.87
2018-03-02T14:33:51.668Z,42.97
2018-03-02T14:36:19.189Z,42.58
2018-03-02T14:38:46.716Z,42.50
2018-03-02T14:41:15.134Z,42.94
2018-03-02T14:43:42.670Z,42.87
2018-03-02T14:46:10.203Z,42.93
2018-03-02T14:48:37.726Z,43.21
2018-03-02T14:51:05.266Z,43.59
2018-03-02T14:53:32.810Z,43.52
2018-03-02T14:56:00.359Z,43.38
2018-03-02T14:58:27.885Z,43.27
2018-03-02T15:00:55.413Z,42.95
2018-03-02T15:03:22.937Z,42.97
2018-03-02T15:05:50.454Z,42.91
2018-03-02T15:08:17.975Z,43.03
2018-03-02T15:10:45.526Z,43.35
2018-03-02T15:13:13.060Z,43.16
2018-03-02T15:15:40.586Z,43.38
2018-03-02T15:18:08.124Z,43.38
2018-03-02T15:20:35.684Z,43.27
2018-03-02T15:23:03.233Z,43.40
2018-03-02T15:25:30.818Z,43.13
2018-03-02T15:27:58.568Z,42.87
2018-03-02T15:30:26.125Z,43.25
2018-03-02T15:32:54.242Z,43.35
2018-03-02T15:35:21.769Z,43.26
2018-03-02T15:37:49.311Z,43.55
2018-03-02T15:40:16.846Z,43.32
2018-03-02T15:42:44.393Z,43.53
2018-03-02T15:45:11.918Z,43.66
2018-03-02T15:47:39.450Z,43.44
2018-03-02T15:50:06.974Z,43.54
2018-03-02T15:52:34.499Z,43.61
2018-03-02T15:55:02.021Z,43.72
2018-03-02T15:57:30.347Z,43.78
2018-03-02T15:59:57.874Z,43.73
2018-03-02T16:02:25.416Z,43.65
2018-03-02T16:04:52.938Z,43.70
2018-03-02T16:07:20.461Z,43.48
2018-03-02T16:09:48.002Z,43.46
2018-03-02T16:12:15.524Z,43.57
2018-03-02T16:14:43.064Z,43.50
2018-03-02T16:17:10.833Z,43.50
2018-03-02T16:19:38.368Z,43.57
2018-03-02T16:22:05.947Z,43.59
2018-03-02T16:24:33.468Z,43.63
2018-03-02T16:27:00.987Z,43.65
2018-03-02T16:29:28.514Z,43.71
2018-03-02T16:31:56.041Z,43.78
2018-03-02T16:34:23.567Z,43.85
2018-03-02T16:36:51.088Z,43.92
2018-03-02T16:39:18.614Z,43.97
2018-03-02T16:41:46.136Z,44.00
2018-03-02T16:44:13.665Z,43.96
2018-03-02T16:46:41.186Z,44.04
2018-03-02T16:49:08.726Z,43.74
2018-03-02T16:51:36.245Z,43.74
2018-03-02T16:54:05.780Z,43.63
2018-03-02T16:56:33.324Z,43.94
2018-03-02T16:59:00.845Z,43.74
2018-03-02T17:01:28.378Z,43.66
2018-03-02T17:03:55.912Z,43.73
2018-03-02T17:06:23.438Z,43.77
2018-03-02T17:08:50.979Z,43.88
2018-03-02T17:11:18.500Z,43.76
2018-03-02T17:13:46.027Z,43.88
2018-03-02T17:16:13.560Z,43.87
2018-03-02T17:18:41.092Z,43.99
2018-03-02T17:21:08.636Z,44.03
2018-03-02T17:23:37.141Z,44.29
2018-03-02T17:26:05.391Z,44.24
2018-03-02T17:28:32.990Z,44.27
2018-03-02T17:31:00.485Z,44.50
2018-03-02T17:33:28.015Z,44.38
2018-03-02T17:35:55.541Z,44.52
2018-03-02T17:38:23.088Z,44.59
2018-03-02T17:40:50.628Z,44.64
2018-03-02T17:43:18.208Z,44.57
2018-03-02T17:45:45.738Z,44.99
2018-03-02T17:48:13.271Z,44.85
2018-03-02T17:50:40.828Z,44.89
2018-03-02T17:53:08.361Z,44.83
2018-03-02T17:55:35.880Z,44.86
2018-03-02T17:58:03.403Z,45.07
2018-03-02T18:00:30.931Z,44.93
2018-03-02T18:02:58.441Z,45.11
2018-03-02T18:05:25.977Z,45.11
2018-03-02T18:07:53.508Z,45.10
2018-03-02T18:10:21.071Z,45.10
2018-03-02T18:12:48.603Z,45.17
2018-03-02T18:15:16.123Z,45.41
2018-03-02T18:17:44.637Z,45.49
2018-03-02T18:20:12.162Z,45.65
2018-03-02T18:22:39.683Z,45.77
2018-03-02T18:25:07.201Z,45.80
2018-03-02T18:27:34.734Z,45.88
2018-03-02T18:30:02.271Z,45.95
2018-03-02T18:32:29.790Z,46.08
2018-03-02T18:34:57.309Z,46.18
2018-03-02T18:37:24.825Z,46.23
2018-03-02T18:39:52.336Z,46.19
2018-03-02T18:42:19.859Z,46.45
2018-03-02T18:44:47.373Z,46.31
2018-03-02T18:47:14.897Z,46.42
2018-03-02T18:49:42.417Z,46.70
2018-03-02T18:52:09.947Z,46.58
2018-03-02T18:54:37.465Z,46.68
2018-03-02T18:57:05.929Z,46.97
2018-03-02T18:59:33.456Z,47.10
2018-03-02T19:02:01.106Z,47.13
2018-03-02T19:04:28.638Z,47.31
2018-03-02T19:06:57.213Z,47.31
2018-03-02T19:09:24.740Z,47.67
2018-03-02T19:11:52.307Z,47.75
2018-03-02T19:14:19.833Z,47.70
2018-03-02T19:16:47.365Z,48.09
2018-03-02T19:19:14.884Z,48.18
2018-03-02T20:25:34.434Z,50.64
2018-03-02T20:28:01.966Z,51.10
2018-03-02T20:30:30.988Z,51.07
2018-03-02T20:32:58.509Z,51.27
2018-03-02T20:35:26.029Z,51.35
2018-03-02T20:37:53.553Z,51.32
2018-03-02T20:40:21.078Z,51.33
2018-03-02T20:42:49.480Z,51.26
2018-03-02T20:45:17.005Z,51.54
2018-03-02T20:47:44.530Z,51.67
2018-03-02T20:50:12.851Z,51.71
2018-03-02T20:52:40.376Z,51.40
2018-03-02T20:55:07.894Z,51.76
2018-03-02T20:57:35.413Z,51.54
2018-03-02T21:00:02.955Z,52.14
2018-03-02T21:02:30.520Z,52.24
2018-03-02T21:04:58.046Z,52.43
2018-03-02T21:07:26.168Z,52.30
2018-03-02T21:09:54.591Z,52.49
2018-03-02T21:12:22.219Z,52.47
2018-03-02T21:14:49.753Z,52.70
2018-03-02T21:17:17.278Z,52.78
2018-03-02T21:19:44.815Z,52.62
2018-03-02T21:22:12.341Z,53.01
2018-03-02T21:24:39.883Z,53.17
2018-03-02T21:27:07.404Z,53.31
2018-03-02T21:29:34.936Z,53.55
2018-03-02T21:32:02.455Z,53.74
2018-03-02T21:34:29.986Z,53.50
2018-03-02T21:36:57.883Z,53.75
2018-03-02T21:39:25.404Z,53.98
2018-03-02T21:41:53.127Z,54.31
2018-03-02T21:44:20.658Z,53.94
2018-03-02T21:46:48.176Z,54.07
2018-03-02T21:49:15.700Z,54.24
2018-03-02T21:51:43.234Z,54.50
2018-03-02T21:54:11.593Z,54.64
2018-03-02T21:56:39.177Z,54.77
2018-03-02T21:59:06.711Z,54.12
2018-03-02T22:01:34.236Z,54.62
2018-03-02T22:04:02.229Z,54.74
2018-03-02T22:06:29.809Z,54.71
2018-03-02T22:08:57.333Z,54.52
2018-03-02T22:11:25.625Z,55.11
2018-03-02T22:13:53.158Z,54.97
2018-03-02T22:16:20.677Z,55.25
2018-03-02T22:18:49.200Z,55.40
2018-03-02T22:21:17.070Z,55.61
2018-03-02T22:23:44.686Z,55.57
2018-03-02T22:26:12.210Z,55.79
2018-03-02T22:28:39.758Z,55.54
2018-03-02T22:31:07.281Z,55.24
2018-03-02T22:33:34.801Z,55.95
2018-03-02T22:36:02.333Z,55.95
2018-03-02T22:38:29.881Z,55.97
2018-03-02T22:40:57.405Z,55.91
2018-03-02T22:43:25.660Z,56.54
2018-03-02T22:45:53.207Z,55.97
2018-03-02T22:48:20.729Z,56.43
2018-03-02T22:50:48.271Z,56.05
2018-03-02T22:53:16.255Z,56.65
2018-03-02T22:55:43.798Z,56.69
2018-03-02T22:58:11.320Z,57.19
2018-03-02T23:00:38.857Z,56.64
2018-03-02T23:03:06.368Z,57.38
2018-03-02T23:05:33.896Z,57.13
2018-03-02T23:08:01.429Z,57.57
2018-03-02T23:10:28.993Z,58.64
2018-03-02T23:12:56.537Z,58.44
2018-03-02T23:15:24.081Z,58.88
2018-03-02T23:17:52.609Z,58.90
2018-03-02T23:20:20.150Z,58.92
2018-03-02T23:22:47.678Z,59.52
2018-03-02T23:25:15.201Z,59.29
2018-03-02T23:27:42.717Z,59.77
2018-03-02T23:30:10.244Z,59.37
2018-03-02T23:32:37.765Z,59.59
2018-03-02T23:35:05.503Z,60.08
2018-03-02T23:37:33.027Z,59.26
2018-03-02T23:40:00.545Z,60.23
2018-03-02T23:42:28.664Z,59.89
2018-03-02T23:44:56.215Z,59.70
2018-03-02T23:47:23.750Z,60.04
2018-03-02T23:49:51.277Z,59.74
2018-03-02T23:52:18.878Z,60.32
2018-03-02T23:54:46.429Z,60.62
2018-03-02T23:57:13.955Z,59.99
2018-03-02T23:59:41.549Z,60.54
